Aérodrome :
LOGIN :

S'inscrire | Disclaimer

   EN    FR    IT 

 










Légende :    VFR   VFR Marginal   IFR   IFR Intensif   IFR Très Intensif
Visi : 
Plafond : 
>= 8 km
>= 3000ft
5 à 8 km
1000 à 3000 ft
1500m à 5 km
500 à 1000 ft
800 à 1500m
200 à 500 ft
< 800m
< 200 ft
Symboles :   Orages  Brouillard  Fortes neiges  Fortes précipitations  Vent > 20 kt
SIGMETs :   Divers  Orages  Givrage  Turbulence  Onde Orograph.  Cendres Volcan.






- Altitude de l'aérodrome : 26 ft
- Code IATA : GAE


DTTG - Matmata

DERNIER METAR :
  • 221800Z 13004KT 8000 FEW030 14/05 Q1030 NOSIG

METARs EXPIRÉS :
  • 221700Z 09003KT 8000 FEW020 16/05 Q1029 NOSIG
  • 221600Z 12004KT 080V160 8000 FEW020 18/06 Q1029 NOSIG

TAF TAF DTTG
Valide du 22 à 19h jusqu'au 23 à 04h UTC


221800Z 2219/2304 10006KT 8000 FEW030
BECMG 2221/2223 04010KT



MET'MAP, la Météo Aéronautique d'un coup d'oeil ! - Copyright ORBIFLY Décembre 2007 - Disclaimer

ORBIFLY MET'MAP TEAM :

Programmation & Développement : Alexandra Zaïnal
Sur une idée originale de : Baudouin d'Aumeries
Assistance à la programmation : Marc-Olivier Méhu
Soutien technique & logistique : Manuel Goepfert

Contact : metmap@orbifly.com




SOURCES & CREDITS :

   NOAA